AYPY

Port Moresby Jacksons International Airport

Port Moresby, Papua New Guinea

AYPY 230000Z 15010KT 9999 FEW020 SCT300 29/17 Q1013 RMKS/ HZ

Observed Flight Rules
Aug-23 @ 00:00 UTC (12 hours ago)
 
Visual Flight Rules
Wind Visibility Clouds
150° at 10 knots 10,000+ meters
  • Few at 2,000' AGL
  • Scattered at 30,000' AGL
Temperatures Readings
Current 29°C / 84°F
Dewpoint 17°C / 63°F
Humidity 48%
Altimeter 29.91" Hg
Pressure 1013 hPa
Elevation 47
Observed Flight Rules
Aug-23 @ 00:00 UTC
(12 hours ago)
 
VFR
Wind Visibility
150° at 10 knots 10,000+ meters
Clouds
  • Few at 2,000' AGL
  • Scattered at 30,000' AGL
Temperature Dewpoint
29°C / 84°F 17°C / 63°F
Humidity Altimeter Pressure
48% 29.91" Hg 1013 hPa